createdAt,value
2023-05-16T00:00:42.636Z,52.57
2023-05-16T00:04:54.952Z,50.76
2023-05-16T00:09:07.313Z,48.36
2023-05-16T00:13:25.324Z,47.36
2023-05-16T00:17:37.559Z,47.01
2023-05-16T00:21:49.897Z,45.68
2023-05-16T00:26:02.263Z,47.06
2023-05-16T00:30:14.805Z,46.11
2023-05-16T00:34:27.335Z,46.22
2023-05-16T00:38:39.693Z,44.10
2023-05-16T00:42:52.067Z,44.70
2023-05-16T00:47:05.266Z,46.58
2023-05-16T00:51:18.759Z,49.60
2023-05-16T00:55:31.341Z,51.68
2023-05-16T00:59:46.531Z,51.63
2023-05-16T01:04:00.994Z,52.09
2023-05-16T01:08:13.488Z,52.26
2023-05-16T01:12:57.089Z,55.30
2023-05-16T01:17:13.089Z,58.13
2023-05-16T01:21:45.466Z,59.99
2023-05-16T01:26:19.698Z,59.87
2023-05-16T01:30:39.512Z,60.30
2023-05-16T01:34:54.624Z,60.79
2023-05-16T01:39:22.952Z,60.66
2023-05-16T01:43:44.179Z,61.09
2023-05-16T01:48:06.007Z,61.85
2023-05-16T01:52:54.541Z,63.59
2023-05-16T01:57:09.344Z,63.92
2023-05-16T02:01:21.818Z,64.35
2023-05-16T02:05:34.570Z,64.32
2023-05-16T02:09:47.904Z,64.91
2023-05-16T02:14:00.482Z,64.95
2023-05-16T02:18:23.823Z,65.28
2023-05-16T02:22:37.332Z,65.28
2023-05-16T02:26:49.726Z,65.36
2023-05-16T02:31:02.456Z,65.63
2023-05-16T02:35:15.702Z,65.19
2023-05-16T02:39:30.381Z,65.31
2023-05-16T02:43:46.807Z,65.90
2023-05-16T02:47:59.422Z,67.45
2023-05-16T02:52:12.295Z,70.44
2023-05-16T02:56:24.621Z,70.02
2023-05-16T03:00:36.951Z,70.35
2023-05-16T03:04:49.324Z,70.56
2023-05-16T03:09:01.650Z,71.27
2023-05-16T03:13:14.079Z,74.18
2023-05-16T03:17:26.819Z,79.66
2023-05-16T03:21:39.214Z,80.22
2023-05-16T03:25:51.882Z,79.59
2023-05-16T03:30:07.801Z,80.79
2023-05-16T03:34:20.220Z,81.45
2023-05-16T03:38:32.864Z,81.32
2023-05-16T03:42:45.179Z,80.37
2023-05-16T03:46:57.533Z,83.66
2023-05-16T03:51:10.071Z,86.53
2023-05-16T03:55:22.670Z,87.67
2023-05-16T03:59:35.386Z,90.05
2023-05-16T04:03:47.877Z,89.80
2023-05-16T04:08:00.267Z,88.31
2023-05-16T04:12:12.673Z,89.95
2023-05-16T04:16:25.246Z,90.46
2023-05-16T04:20:38.944Z,90.28
2023-05-16T04:24:51.499Z,90.68
2023-05-16T04:29:04.677Z,91.00
2023-05-16T04:33:17.346Z,90.17
2023-05-16T04:37:29.839Z,91.44
2023-05-16T04:41:42.762Z,91.96
2023-05-16T04:45:55.276Z,92.80
2023-05-16T04:50:09.393Z,90.89
2023-05-16T04:54:21.844Z,94.31
2023-05-16T04:58:34.330Z,88.85
2023-05-16T05:02:47.004Z,85.42
2023-05-16T05:07:00.159Z,90.59
2023-05-16T05:11:12.520Z,91.32
2023-05-16T05:15:25.201Z,90.79
2023-05-16T05:19:37.811Z,90.02
2023-05-16T05:23:50.360Z,90.83
2023-05-16T05:28:02.907Z,91.50
2023-05-16T05:32:15.415Z,92.88
2023-05-16T05:36:28.013Z,93.18
2023-05-16T05:40:40.325Z,93.17
2023-05-16T05:44:52.734Z,94.69
2023-05-16T05:49:05.437Z,95.40
2023-05-16T05:53:17.930Z,92.77
2023-05-16T05:57:30.459Z,93.35
2023-05-16T06:01:44.292Z,93.38
2023-05-16T06:05:56.909Z,92.95
2023-05-16T06:10:09.659Z,90.70
2023-05-16T06:14:22.120Z,89.43
2023-05-16T06:18:34.637Z,88.01
2023-05-16T06:22:47.058Z,82.35
2023-05-16T06:26:59.522Z,74.69
2023-05-16T06:31:12.140Z,78.41
2023-05-16T06:35:24.715Z,84.27
2023-05-16T06:39:37.674Z,81.38
2023-05-16T06:43:50.164Z,77.53
2023-05-16T06:48:02.628Z,79.53
2023-05-16T06:52:15.075Z,73.95
2023-05-16T06:56:29.058Z,72.70
2023-05-16T07:00:42.096Z,73.13
2023-05-16T07:04:54.636Z,74.13
2023-05-16T07:09:07.647Z,73.85
2023-05-16T07:13:20.218Z,73.39
2023-05-16T07:17:32.602Z,69.85
2023-05-16T07:21:46.102Z,64.43
2023-05-16T07:25:59.289Z,63.11
2023-05-16T07:30:13.562Z,64.16
2023-05-16T07:34:26.849Z,60.70
2023-05-16T07:38:39.633Z,56.28
2023-05-16T07:42:52.527Z,56.75
2023-05-16T07:47:05.421Z,57.44
2023-05-16T07:51:17.956Z,58.94
2023-05-16T07:55:30.814Z,60.06
2023-05-16T07:59:44.030Z,60.65
2023-05-16T08:03:56.859Z,60.27
2023-05-16T08:08:09.298Z,60.35
2023-05-16T08:12:22.052Z,60.58
2023-05-16T08:16:34.644Z,61.96
2023-05-16T08:20:47.243Z,62.41
2023-05-16T08:25:00.944Z,62.78
2023-05-16T08:29:13.499Z,61.68
2023-05-16T08:33:26.053Z,61.41
2023-05-16T08:37:39.383Z,59.36
2023-05-16T08:41:51.881Z,59.52
2023-05-16T08:46:04.384Z,59.20
2023-05-16T08:50:17.084Z,58.98
2023-05-16T08:54:30.398Z,56.40
2023-05-16T08:58:43.498Z,55.04
2023-05-16T09:02:56.474Z,51.27
2023-05-16T09:07:09.059Z,50.16
2023-05-16T09:11:22.087Z,49.53
2023-05-16T09:15:34.940Z,48.26
2023-05-16T09:19:53.151Z,51.20
2023-05-16T09:24:06.940Z,50.05
2023-05-16T09:28:19.502Z,48.04
2023-05-16T09:32:32.090Z,46.01
2023-05-16T09:36:44.610Z,44.51
2023-05-16T09:40:57.177Z,43.35
2023-05-16T09:45:14.435Z,43.96
2023-05-16T09:49:27.184Z,43.50
2023-05-16T09:53:40.917Z,44.49
2023-05-16T09:57:53.497Z,44.15
2023-05-16T10:02:08.164Z,44.64
2023-05-16T10:06:21.061Z,44.05
2023-05-16T10:10:37.017Z,45.95
2023-05-16T10:14:50.679Z,45.68
2023-05-16T10:19:04.515Z,47.01
2023-05-16T10:23:20.116Z,47.99
2023-05-16T10:27:32.941Z,55.32
2023-05-16T10:31:47.370Z,64.77
2023-05-16T10:35:59.946Z,67.60
2023-05-16T10:40:13.450Z,68.09
2023-05-16T10:44:26.455Z,67.79
2023-05-16T10:48:40.702Z,68.58
2023-05-16T10:52:53.683Z,68.16
2023-05-16T10:57:08.898Z,64.97
2023-05-16T11:01:25.848Z,60.86
2023-05-16T11:05:38.641Z,55.82
2023-05-16T11:10:05.748Z,56.86
2023-05-16T11:14:29.175Z,55.96
2023-05-16T11:18:51.702Z,51.59
2023-05-16T11:23:18.860Z,53.86
2023-05-16T11:27:45.793Z,56.37
2023-05-16T11:32:03.312Z,58.77
2023-05-16T11:36:16.562Z,57.99
2023-05-16T11:40:29.219Z,59.38
2023-05-16T11:44:41.937Z,56.20
2023-05-16T11:48:54.477Z,52.85
2023-05-16T11:53:09.603Z,53.83
2023-05-16T11:57:22.311Z,55.66
2023-05-16T12:01:39.570Z,56.81
2023-05-16T12:05:57.149Z,57.68
2023-05-16T12:10:11.380Z,59.61
2023-05-16T12:14:24.571Z,58.52
2023-05-16T12:18:41.912Z,56.50
2023-05-16T12:23:00.037Z,56.61
2023-05-16T12:27:13.100Z,53.47
2023-05-16T12:31:31.763Z,49.68
2023-05-16T12:35:46.986Z,48.46
2023-05-16T12:40:04.487Z,50.02
2023-05-16T12:44:19.926Z,48.86
2023-05-16T12:48:35.558Z,47.38
2023-05-16T12:52:52.915Z,49.06
2023-05-16T12:57:10.531Z,47.23
2023-05-16T13:01:23.094Z,48.58
2023-05-16T13:05:36.651Z,47.69
2023-05-16T13:09:49.452Z,48.18
2023-05-16T13:14:01.835Z,48.16
2023-05-16T13:18:15.322Z,45.13
2023-05-16T13:22:27.895Z,45.00
2023-05-16T13:26:40.428Z,45.28
2023-05-16T13:30:53.102Z,46.92
2023-05-16T13:35:06.429Z,49.31
2023-05-16T13:39:18.875Z,47.26
2023-05-16T13:43:31.413Z,46.91
2023-05-16T13:47:45.164Z,48.03
2023-05-16T13:51:59.056Z,48.70
2023-05-16T13:56:11.761Z,47.73
2023-05-16T14:04:39.821Z,49.79
2023-05-16T14:08:52.336Z,48.36
2023-05-16T14:13:04.820Z,48.08
2023-05-16T14:17:17.464Z,49.39
2023-05-16T14:21:29.902Z,48.11
2023-05-16T14:25:42.540Z,48.33
2023-05-16T14:29:55.023Z,46.82
2023-05-16T14:34:07.482Z,46.54
2023-05-16T14:38:21.304Z,46.93
2023-05-16T14:42:33.780Z,46.73
2023-05-16T14:46:46.988Z,52.75
2023-05-16T14:50:59.758Z,55.96
2023-05-16T14:55:12.297Z,57.37
2023-05-16T14:59:24.899Z,57.12
2023-05-16T15:03:53.626Z,55.37
2023-05-16T15:08:08.192Z,55.55
2023-05-16T15:12:20.728Z,55.88
2023-05-16T15:16:33.156Z,54.00
2023-05-16T15:20:45.693Z,52.38
2023-05-16T15:24:58.210Z,52.84
2023-05-16T15:29:11.293Z,52.65
2023-05-16T15:33:23.870Z,50.31
2023-05-16T15:37:36.471Z,50.14
2023-05-16T15:42:08.533Z,50.90
2023-05-16T15:46:21.644Z,50.83
2023-05-16T15:50:34.280Z,49.72
2023-05-16T15:54:46.693Z,50.35
2023-05-16T15:58:59.235Z,50.11
2023-05-16T16:03:12.009Z,50.00
2023-05-16T16:07:25.126Z,50.83
2023-05-16T16:11:37.727Z,52.22
2023-05-16T16:15:50.747Z,52.32
2023-05-16T16:20:03.389Z,53.44
2023-05-16T16:24:16.265Z,53.82
2023-05-16T16:28:29.010Z,54.43
2023-05-16T16:32:41.667Z,56.01
2023-05-16T16:36:54.175Z,56.91
2023-05-16T16:41:06.773Z,57.39
2023-05-16T16:45:21.322Z,56.65
2023-05-16T16:49:34.942Z,57.46
2023-05-16T16:53:47.716Z,58.54
2023-05-16T16:58:01.708Z,59.33
2023-05-16T17:02:14.493Z,58.61
2023-05-16T17:06:26.970Z,58.48
2023-05-16T17:10:39.741Z,58.29
2023-05-16T17:14:52.268Z,58.28
2023-05-16T17:19:05.889Z,58.70
2023-05-16T17:23:20.363Z,58.96
2023-05-16T17:27:33.025Z,58.39
2023-05-16T17:31:45.650Z,59.60
2023-05-16T17:35:58.090Z,59.83
2023-05-16T17:40:16.667Z,60.35
2023-05-16T17:44:29.168Z,60.00
2023-05-16T17:48:42.523Z,59.37
2023-05-16T17:52:55.040Z,59.78
2023-05-16T17:57:07.545Z,59.95
2023-05-16T18:01:19.970Z,60.41
2023-05-16T18:05:33.146Z,60.43
2023-05-16T18:09:45.666Z,57.42
2023-05-16T18:13:58.256Z,57.36
2023-05-16T18:18:10.768Z,59.09
2023-05-16T18:22:23.327Z,59.29
2023-05-16T18:26:37.166Z,60.27
2023-05-16T18:30:49.879Z,60.23
2023-05-16T18:35:02.475Z,60.84
2023-05-16T18:39:15.502Z,59.83
2023-05-16T18:43:28.054Z,62.46
2023-05-16T18:47:40.626Z,62.23
2023-05-16T18:51:53.077Z,66.04
2023-05-16T18:56:05.545Z,66.44
2023-05-16T19:00:18.292Z,67.46
2023-05-16T19:04:31.024Z,67.80
2023-05-16T19:08:48.162Z,67.15
2023-05-16T19:13:07.258Z,66.58
2023-05-16T19:17:19.780Z,58.52
2023-05-16T19:21:32.261Z,57.41
2023-05-16T19:25:49.283Z,59.77
2023-05-16T19:30:01.826Z,60.35
2023-05-16T19:34:14.599Z,60.41
2023-05-16T19:38:27.350Z,60.64
2023-05-16T19:42:39.750Z,60.87
2023-05-16T19:46:52.211Z,61.87
2023-05-16T19:51:05.982Z,67.65
2023-05-16T19:55:18.508Z,71.34
2023-05-16T19:59:32.766Z,72.07
2023-05-16T20:03:45.327Z,73.65
2023-05-16T20:07:57.938Z,74.63
2023-05-16T20:12:10.601Z,75.00
2023-05-16T20:16:23.128Z,74.12
2023-05-16T20:20:35.573Z,72.71
2023-05-16T20:24:48.057Z,70.71
2023-05-16T20:29:00.513Z,68.16
2023-05-16T20:33:13.084Z,69.64
2023-05-16T20:37:28.637Z,70.31
2023-05-16T20:41:43.150Z,70.30
2023-05-16T20:45:56.139Z,70.68
2023-05-16T20:50:09.108Z,73.03
2023-05-16T20:54:21.563Z,73.19
2023-05-16T20:58:35.151Z,73.29
2023-05-16T21:02:47.584Z,74.87
2023-05-16T21:07:00.083Z,75.45
2023-05-16T21:11:12.446Z,76.68
2023-05-16T21:15:24.932Z,78.03
2023-05-16T21:19:38.932Z,79.40
2023-05-16T21:23:51.333Z,80.67
2023-05-16T21:28:04.090Z,81.37
2023-05-16T21:32:16.567Z,78.33
2023-05-16T21:36:29.016Z,78.36
2023-05-16T21:40:41.646Z,79.26
2023-05-16T21:44:54.022Z,80.06
2023-05-16T21:49:06.488Z,79.37
2023-05-16T21:53:19.474Z,80.13
2023-05-16T21:57:31.962Z,81.92
2023-05-16T22:01:44.390Z,82.84
2023-05-16T22:05:58.506Z,82.46
2023-05-16T22:10:12.088Z,81.99
2023-05-16T22:14:24.726Z,79.54
2023-05-16T22:18:37.457Z,80.45
2023-05-16T22:22:51.166Z,81.71
2023-05-16T22:27:03.472Z,82.91
2023-05-16T22:31:16.051Z,84.33
2023-05-16T22:35:32.232Z,84.70
2023-05-16T22:39:44.641Z,84.87
2023-05-16T22:43:57.038Z,85.03
2023-05-16T22:48:09.687Z,85.80
2023-05-16T22:52:22.471Z,84.56
2023-05-16T22:56:34.839Z,85.20
2023-05-16T23:00:47.465Z,86.15
2023-05-16T23:05:00.202Z,86.50
2023-05-16T23:09:12.648Z,86.39
2023-05-16T23:13:25.074Z,86.66
2023-05-16T23:17:41.130Z,85.90
2023-05-16T23:21:53.579Z,86.38
2023-05-16T23:26:06.232Z,84.43
2023-05-16T23:30:18.654Z,83.43
2023-05-16T23:34:31.184Z,85.10
2023-05-16T23:38:43.657Z,82.41
2023-05-16T23:42:56.377Z,82.18
2023-05-16T23:47:10.026Z,83.16
2023-05-16T23:51:22.397Z,83.56
2023-05-16T23:55:36.091Z,83.57
2023-05-16T23:59:48.502Z,84.10
